KILM

Wilmington International Airport

Wilmington, North Carolina, USA
METAR KILM 232153Z 15006KT 10SM FEW008 OVC070 20/18 A3036 RMK AO2 SLP279 T02000178
Observed Flight Rules
Feb-23 @ 21:53 UTC (45 minutes ago) Visual Flight Rules
Wind Visibility Clouds
150° at 6 knots 10 miles
  • Few at 800' AGL
  • Overcast at 7,000' AGL
Temperatures Readings
Current 20°C / 68°F
Dewpoint 18°C / 64°F
Humidity 88%
Altimeter 30.36" Hg
Pressure 1027.9 hPa
Elevation 9
METAR KILM 232153Z 15006KT 10SM FEW008 OVC070 20/18 A3036 RMK AO2 SLP279 T02000178
Observed Flight Rules
Feb-23 @ 21:53 UTC
(45 minutes ago)
VFR
Wind Visibility
150° at 6 knots 10 miles
Clouds
  • Few at 800' AGL
  • Overcast at 7,000' AGL
Temperature Dewpoint
20°C / 68°F 18°C / 64°F
Humidity Altimeter Pressure
88% 30.36" Hg 1027.9 hPa